sensor_id;sensor_type;location;lat;lon;timestamp;pressure;altitude;pressure_sealevel;temperature;humidity
40089;BME280;25793;55.706;13.186;2022-08-25T00:01:29;101774.81;;;20.39;72.92
40089;BME280;25793;55.706;13.186;2022-08-25T00:04:00;101775.41;;;20.32;73.32
40089;BME280;25793;55.706;13.186;2022-08-25T00:06:29;101779.28;;;20.28;73.50
40089;BME280;25793;55.706;13.186;2022-08-25T00:08:55;101772.19;;;20.28;73.53
40089;BME280;25793;55.706;13.186;2022-08-25T00:11:28;101777.94;;;20.33;73.51
40089;BME280;25793;55.706;13.186;2022-08-25T00:14:00;101775.56;;;20.30;73.57
40089;BME280;25793;55.706;13.186;2022-08-25T00:16:28;101768.34;;;20.32;73.50
40089;BME280;25793;55.706;13.186;2022-08-25T00:19:01;101768.22;;;20.34;73.42
40089;BME280;25793;55.706;13.186;2022-08-25T00:21:28;101766.78;;;20.30;73.46
40089;BME280;25793;55.706;13.186;2022-08-25T00:23:57;101765.97;;;20.29;73.92
40089;BME280;25793;55.706;13.186;2022-08-25T00:26:25;101765.81;;;20.31;73.48
40089;BME280;25793;55.706;13.186;2022-08-25T00:28:53;101758.03;;;20.29;73.56
40089;BME280;25793;55.706;13.186;2022-08-25T00:31:27;101767.25;;;20.35;73.10
40089;BME280;25793;55.706;13.186;2022-08-25T00:34:08;101764.66;;;20.23;73.46
40089;BME280;25793;55.706;13.186;2022-08-25T00:36:35;101767.88;;;20.27;73.44
40089;BME280;25793;55.706;13.186;2022-08-25T00:39:03;101767.03;;;20.27;73.32
40089;BME280;25793;55.706;13.186;2022-08-25T00:41:31;101766.06;;;20.28;73.20
40089;BME280;25793;55.706;13.186;2022-08-25T00:43:59;101765.25;;;20.27;72.97
40089;BME280;25793;55.706;13.186;2022-08-25T00:46:38;101776.44;;;20.19;73.16
40089;BME280;25793;55.706;13.186;2022-08-25T00:49:10;101777.75;;;20.14;73.12
40089;BME280;25793;55.706;13.186;2022-08-25T00:52:19;101774.06;;;20.16;72.92
40089;BME280;25793;55.706;13.186;2022-08-25T00:54:52;101775.59;;;20.19;72.82
40089;BME280;25793;55.706;13.186;2022-08-25T00:57:23;101768.38;;;20.21;72.55
40089;BME280;25793;55.706;13.186;2022-08-25T01:00:04;101766.22;;;20.26;72.40
40089;BME280;25793;55.706;13.186;2022-08-25T01:02:32;101781.34;;;20.24;72.50
40089;BME280;25793;55.706;13.186;2022-08-25T01:04:58;101774.53;;;20.21;72.65
40089;BME280;25793;55.706;13.186;2022-08-25T01:07:25;101774.94;;;20.27;72.28
40089;BME280;25793;55.706;13.186;2022-08-25T01:09:52;101770.53;;;20.27;72.54
40089;BME280;25793;55.706;13.186;2022-08-25T01:12:19;101768.28;;;20.22;72.34
40089;BME280;25793;55.706;13.186;2022-08-25T01:14:47;101783.28;;;20.10;72.61
40089;BME280;25793;55.706;13.186;2022-08-25T01:17:15;101779.69;;;20.12;72.84
40089;BME280;25793;55.706;13.186;2022-08-25T01:19:42;101773.59;;;20.11;72.60
40089;BME280;25793;55.706;13.186;2022-08-25T01:22:09;101771.06;;;20.09;72.73
40089;BME280;25793;55.706;13.186;2022-08-25T01:24:44;101767.69;;;20.07;72.72
40089;BME280;25793;55.706;13.186;2022-08-25T01:27:12;101767.38;;;20.01;72.69
40089;BME280;25793;55.706;13.186;2022-08-25T01:29:39;101769.53;;;19.95;73.00
40089;BME280;25793;55.706;13.186;2022-08-25T01:32:09;101767.16;;;19.92;73.03
40089;BME280;25793;55.706;13.186;2022-08-25T01:34:39;101776.25;;;20.00;72.67
40089;BME280;25793;55.706;13.186;2022-08-25T01:37:08;101766.78;;;19.97;72.71
40089;BME280;25793;55.706;13.186;2022-08-25T01:39:40;101762.00;;;19.91;72.79
40089;BME280;25793;55.706;13.186;2022-08-25T01:44:40;101761.63;;;19.84;72.79
40089;BME280;25793;55.706;13.186;2022-08-25T01:47:07;101765.34;;;19.81;73.00
40089;BME280;25793;55.706;13.186;2022-08-25T01:49:34;101758.16;;;19.84;73.04
40089;BME280;25793;55.706;13.186;2022-08-25T01:54:31;101759.09;;;19.83;72.84
40089;BME280;25793;55.706;13.186;2022-08-25T01:56:58;101759.59;;;19.76;73.01
40089;BME280;25793;55.706;13.186;2022-08-25T01:59:25;101764.06;;;19.76;73.09
40089;BME280;25793;55.706;13.186;2022-08-25T02:01:52;101767.03;;;19.71;73.27
40089;BME280;25793;55.706;13.186;2022-08-25T02:04:26;101768.28;;;19.67;73.56
40089;BME280;25793;55.706;13.186;2022-08-25T02:07:03;101771.16;;;19.64;73.74
40089;BME280;25793;55.706;13.186;2022-08-25T02:09:31;101767.44;;;19.55;74.08
40089;BME280;25793;55.706;13.186;2022-08-25T02:11:58;101770.06;;;19.55;74.20
40089;BME280;25793;55.706;13.186;2022-08-25T02:14:25;101764.53;;;19.58;74.22
40089;BME280;25793;55.706;13.186;2022-08-25T02:16:54;101758.44;;;19.46;74.40
40089;BME280;25793;55.706;13.186;2022-08-25T02:19:22;101750.91;;;19.42;75.09
40089;BME280;25793;55.706;13.186;2022-08-25T02:21:50;101756.75;;;19.45;74.91
40089;BME280;25793;55.706;13.186;2022-08-25T02:24:17;101753.66;;;19.40;75.07
40089;BME280;25793;55.706;13.186;2022-08-25T02:26:44;101758.19;;;19.38;75.33
40089;BME280;25793;55.706;13.186;2022-08-25T02:29:11;101753.41;;;19.32;75.41
40089;BME280;25793;55.706;13.186;2022-08-25T02:31:38;101765.28;;;19.26;76.03
40089;BME280;25793;55.706;13.186;2022-08-25T02:34:05;101762.16;;;19.32;75.88
40089;BME280;25793;55.706;13.186;2022-08-25T02:36:33;101762.66;;;19.26;76.09
40089;BME280;25793;55.706;13.186;2022-08-25T02:39:00;101760.97;;;19.25;76.04
40089;BME280;25793;55.706;13.186;2022-08-25T02:41:29;101763.75;;;19.24;76.27
40089;BME280;25793;55.706;13.186;2022-08-25T02:44:01;101775.00;;;19.26;76.25
40089;BME280;25793;55.706;13.186;2022-08-25T02:46:28;101766.47;;;19.22;76.26
40089;BME280;25793;55.706;13.186;2022-08-25T02:48:55;101767.19;;;19.24;76.14
40089;BME280;25793;55.706;13.186;2022-08-25T02:51:23;101769.13;;;19.22;76.12
40089;BME280;25793;55.706;13.186;2022-08-25T02:53:51;101767.56;;;19.19;76.19
40089;BME280;25793;55.706;13.186;2022-08-25T02:56:18;101765.41;;;19.13;76.45
40089;BME280;25793;55.706;13.186;2022-08-25T02:58:46;101762.41;;;19.18;76.03
40089;BME280;25793;55.706;13.186;2022-08-25T03:01:14;101754.50;;;19.18;76.15
40089;BME280;25793;55.706;13.186;2022-08-25T03:03:44;101754.72;;;19.15;76.07
40089;BME280;25793;55.706;13.186;2022-08-25T03:06:12;101756.19;;;19.08;76.23
40089;BME280;25793;55.706;13.186;2022-08-25T03:08:41;101751.88;;;19.06;76.03
40089;BME280;25793;55.706;13.186;2022-08-25T03:11:08;101755.31;;;19.07;75.99
40089;BME280;25793;55.706;13.186;2022-08-25T03:13:36;101746.94;;;19.02;75.76
40089;BME280;25793;55.706;13.186;2022-08-25T03:16:04;101744.69;;;19.09;75.39
40089;BME280;25793;55.706;13.186;2022-08-25T03:18:39;101751.25;;;19.03;75.07
40089;BME280;25793;55.706;13.186;2022-08-25T03:21:06;101742.97;;;18.96;74.89
40089;BME280;25793;55.706;13.186;2022-08-25T03:23:33;101752.94;;;19.04;74.50
40089;BME280;25793;55.706;13.186;2022-08-25T03:26:00;101745.47;;;18.98;74.22
40089;BME280;25793;55.706;13.186;2022-08-25T03:28:46;101740.53;;;18.93;74.23
40089;BME280;25793;55.706;13.186;2022-08-25T03:31:12;101736.63;;;18.99;73.87
40089;BME280;25793;55.706;13.186;2022-08-25T03:33:39;101739.59;;;18.94;73.76
40089;BME280;25793;55.706;13.186;2022-08-25T03:36:06;101748.31;;;18.95;73.47
40089;BME280;25793;55.706;13.186;2022-08-25T03:38:34;101744.53;;;18.99;73.16
40089;BME280;25793;55.706;13.186;2022-08-25T03:41:15;101749.19;;;18.95;72.83
40089;BME280;25793;55.706;13.186;2022-08-25T03:43:42;101742.47;;;18.91;72.78
40089;BME280;25793;55.706;13.186;2022-08-25T03:46:16;101741.50;;;18.92;72.56
40089;BME280;25793;55.706;13.186;2022-08-25T03:48:45;101737.88;;;18.82;72.50
40089;BME280;25793;55.706;13.186;2022-08-25T03:51:11;101731.16;;;18.77;72.42
40089;BME280;25793;55.706;13.186;2022-08-25T03:53:39;101734.41;;;18.70;72.18
40089;BME280;25793;55.706;13.186;2022-08-25T03:56:05;101738.00;;;18.69;71.87
40089;BME280;25793;55.706;13.186;2022-08-25T03:58:32;101723.25;;;18.66;71.49
40089;BME280;25793;55.706;13.186;2022-08-25T04:00:59;101723.72;;;18.60;71.82
40089;BME280;25793;55.706;13.186;2022-08-25T04:03:26;101728.13;;;18.59;71.81
40089;BME280;25793;55.706;13.186;2022-08-25T04:05:52;101722.88;;;18.59;71.50
40089;BME280;25793;55.706;13.186;2022-08-25T04:08:21;101726.00;;;18.65;71.51
40089;BME280;25793;55.706;13.186;2022-08-25T04:10:48;101723.50;;;18.63;71.46
40089;BME280;25793;55.706;13.186;2022-08-25T04:13:15;101727.09;;;18.62;71.54
40089;BME280;25793;55.706;13.186;2022-08-25T04:15:42;101728.63;;;18.65;71.55
40089;BME280;25793;55.706;13.186;2022-08-25T04:18:09;101726.84;;;18.65;71.46
40089;BME280;25793;55.706;13.186;2022-08-25T04:20:37;101720.84;;;18.63;71.40
40089;BME280;25793;55.706;13.186;2022-08-25T04:23:03;101713.06;;;18.61;71.24
40089;BME280;25793;55.706;13.186;2022-08-25T04:25:30;101709.47;;;18.51;72.25
40089;BME280;25793;55.706;13.186;2022-08-25T04:27:57;101721.06;;;18.49;71.88
40089;BME280;25793;55.706;13.186;2022-08-25T04:30:23;101721.31;;;18.57;72.13
40089;BME280;25793;55.706;13.186;2022-08-25T04:32:50;101718.31;;;18.61;71.97
40089;BME280;25793;55.706;13.186;2022-08-25T04:35:17;101714.63;;;18.64;71.94
40089;BME280;25793;55.706;13.186;2022-08-25T04:37:43;101712.09;;;18.62;72.04
40089;BME280;25793;55.706;13.186;2022-08-25T04:40:13;101720.41;;;18.69;72.08
40089;BME280;25793;55.706;13.186;2022-08-25T04:42:40;101722.31;;;18.67;72.09
40089;BME280;25793;55.706;13.186;2022-08-25T04:45:07;101724.72;;;18.70;72.10
40089;BME280;25793;55.706;13.186;2022-08-25T04:47:37;101723.50;;;18.74;72.01
40089;BME280;25793;55.706;13.186;2022-08-25T04:50:05;101714.03;;;18.72;71.91
40089;BME280;25793;55.706;13.186;2022-08-25T04:52:32;101717.63;;;18.71;72.09
40089;BME280;25793;55.706;13.186;2022-08-25T04:54:59;101722.53;;;18.75;72.10
40089;BME280;25793;55.706;13.186;2022-08-25T04:57:26;101710.81;;;18.80;71.84
40089;BME280;25793;55.706;13.186;2022-08-25T04:59:53;101711.66;;;18.80;71.69
40089;BME280;25793;55.706;13.186;2022-08-25T05:02:21;101704.47;;;18.82;71.77
40089;BME280;25793;55.706;13.186;2022-08-25T05:04:48;101711.28;;;18.73;72.17
40089;BME280;25793;55.706;13.186;2022-08-25T05:07:14;101716.44;;;18.75;72.21
40089;BME280;25793;55.706;13.186;2022-08-25T05:09:41;101718.72;;;18.68;72.49
40089;BME280;25793;55.706;13.186;2022-08-25T05:12:08;101720.28;;;18.71;72.44
40089;BME280;25793;55.706;13.186;2022-08-25T05:14:37;101721.00;;;18.73;72.65
40089;BME280;25793;55.706;13.186;2022-08-25T05:17:04;101721.25;;;18.81;72.78
40089;BME280;25793;55.706;13.186;2022-08-25T05:19:32;101723.25;;;18.77;73.30
40089;BME280;25793;55.706;13.186;2022-08-25T05:21:59;101717.91;;;18.79;73.36
40089;BME280;25793;55.706;13.186;2022-08-25T05:24:26;101721.13;;;18.71;73.84
40089;BME280;25793;55.706;13.186;2022-08-25T05:26:53;101721.34;;;18.68;74.38
40089;BME280;25793;55.706;13.186;2022-08-25T05:29:20;101722.31;;;18.79;74.44
40089;BME280;25793;55.706;13.186;2022-08-25T05:31:47;101728.91;;;18.84;74.58
40089;BME280;25793;55.706;13.186;2022-08-25T05:34:17;101732.38;;;18.85;74.99
40089;BME280;25793;55.706;13.186;2022-08-25T05:36:45;101732.06;;;18.89;75.11
40089;BME280;25793;55.706;13.186;2022-08-25T05:39:11;101728.19;;;18.94;75.36
40089;BME280;25793;55.706;13.186;2022-08-25T05:41:39;101739.16;;;19.00;75.69
40089;BME280;25793;55.706;13.186;2022-08-25T05:44:06;101734.47;;;19.04;75.87
40089;BME280;25793;55.706;13.186;2022-08-25T05:46:33;101734.72;;;19.12;75.95
40089;BME280;25793;55.706;13.186;2022-08-25T05:48:59;101739.63;;;19.17;76.00
40089;BME280;25793;55.706;13.186;2022-08-25T05:51:27;101736.03;;;19.29;75.89
40089;BME280;25793;55.706;13.186;2022-08-25T05:53:54;101728.59;;;19.34;75.65
40089;BME280;25793;55.706;13.186;2022-08-25T05:56:21;101728.13;;;19.41;75.89
40089;BME280;25793;55.706;13.186;2022-08-25T05:58:47;101727.50;;;19.48;75.66
40089;BME280;25793;55.706;13.186;2022-08-25T06:01:19;101722.09;;;19.50;75.47
40089;BME280;25793;55.706;13.186;2022-08-25T06:04:09;101732.53;;;19.63;75.55
40089;BME280;25793;55.706;13.186;2022-08-25T06:06:37;101733.69;;;19.70;75.25
40089;BME280;25793;55.706;13.186;2022-08-25T06:09:04;101738.84;;;19.83;74.98
40089;BME280;25793;55.706;13.186;2022-08-25T06:11:32;101735.72;;;19.89;74.48
40089;BME280;25793;55.706;13.186;2022-08-25T06:13:58;101744.94;;;19.84;74.98
40089;BME280;25793;55.706;13.186;2022-08-25T06:16:25;101729.97;;;19.84;75.07
40089;BME280;25793;55.706;13.186;2022-08-25T06:18:52;101732.47;;;19.86;75.09
40089;BME280;25793;55.706;13.186;2022-08-25T06:21:20;101742.56;;;19.92;75.04
40089;BME280;25793;55.706;13.186;2022-08-25T06:23:47;101734.16;;;19.98;74.68
40089;BME280;25793;55.706;13.186;2022-08-25T06:26:14;101732.31;;;19.87;75.18
40089;BME280;25793;55.706;13.186;2022-08-25T06:28:50;101736.19;;;19.94;75.08
40089;BME280;25793;55.706;13.186;2022-08-25T06:31:18;101735.47;;;19.92;75.18
40089;BME280;25793;55.706;13.186;2022-08-25T06:33:45;101729.38;;;19.92;75.35
40089;BME280;25793;55.706;13.186;2022-08-25T06:36:13;101738.31;;;20.01;75.12
40089;BME280;25793;55.706;13.186;2022-08-25T06:38:40;101730.47;;;20.10;74.85
40089;BME280;25793;55.706;13.186;2022-08-25T06:41:07;101727.47;;;20.15;74.54
40089;BME280;25793;55.706;13.186;2022-08-25T06:43:38;101721.34;;;20.15;74.62
40089;BME280;25793;55.706;13.186;2022-08-25T06:46:16;101730.59;;;20.20;74.71
40089;BME280;25793;55.706;13.186;2022-08-25T06:48:43;101733.28;;;20.30;74.25
40089;BME280;25793;55.706;13.186;2022-08-25T06:51:14;101734.06;;;20.42;74.10
40089;BME280;25793;55.706;13.186;2022-08-25T06:53:42;101737.38;;;20.55;73.88
40089;BME280;25793;55.706;13.186;2022-08-25T06:56:09;101738.59;;;20.73;73.29
40089;BME280;25793;55.706;13.186;2022-08-25T06:58:37;101732.19;;;20.75;73.21
40089;BME280;25793;55.706;13.186;2022-08-25T07:01:22;101738.66;;;20.82;72.71
40089;BME280;25793;55.706;13.186;2022-08-25T07:03:56;101735.63;;;20.87;72.59
40089;BME280;25793;55.706;13.186;2022-08-25T07:06:27;101738.97;;;20.89;72.79
40089;BME280;25793;55.706;13.186;2022-08-25T07:08:54;101739.81;;;20.90;72.55
40089;BME280;25793;55.706;13.186;2022-08-25T07:11:21;101733.59;;;21.01;72.12
40089;BME280;25793;55.706;13.186;2022-08-25T07:13:48;101738.63;;;21.04;71.95
40089;BME280;25793;55.706;13.186;2022-08-25T07:16:17;101726.22;;;21.04;71.80
40089;BME280;25793;55.706;13.186;2022-08-25T07:18:46;101732.38;;;21.05;71.94
40089;BME280;25793;55.706;13.186;2022-08-25T07:21:13;101736.31;;;21.20;71.50
40089;BME280;25793;55.706;13.186;2022-08-25T07:23:40;101739.13;;;21.28;71.17
40089;BME280;25793;55.706;13.186;2022-08-25T07:26:16;101738.06;;;21.41;70.74
40089;BME280;25793;55.706;13.186;2022-08-25T07:29:10;101737.88;;;21.64;70.18
40089;BME280;25793;55.706;13.186;2022-08-25T07:31:38;101737.91;;;21.73;70.25
40089;BME280;25793;55.706;13.186;2022-08-25T07:34:05;101733.72;;;21.71;69.69
40089;BME280;25793;55.706;13.186;2022-08-25T07:36:52;101736.34;;;21.71;69.24
40089;BME280;25793;55.706;13.186;2022-08-25T07:39:19;101727.94;;;21.56;69.49
40089;BME280;25793;55.706;13.186;2022-08-25T07:41:47;101727.16;;;21.65;69.62
40089;BME280;25793;55.706;13.186;2022-08-25T07:44:18;101729.94;;;21.64;69.19
40089;BME280;25793;55.706;13.186;2022-08-25T07:46:45;101733.44;;;21.84;69.08
40089;BME280;25793;55.706;13.186;2022-08-25T07:49:12;101736.13;;;21.94;67.51
40089;BME280;25793;55.706;13.186;2022-08-25T07:51:43;101737.91;;;22.03;66.82
40089;BME280;25793;55.706;13.186;2022-08-25T07:54:30;101728.59;;;22.18;66.35
40089;BME280;25793;55.706;13.186;2022-08-25T07:57:03;101724.69;;;22.23;65.99
40089;BME280;25793;55.706;13.186;2022-08-25T07:59:31;101724.94;;;22.29;65.00
40089;BME280;25793;55.706;13.186;2022-08-25T08:02:10;101728.84;;;22.35;65.14
40089;BME280;25793;55.706;13.186;2022-08-25T08:04:47;101730.53;;;22.46;64.67
40089;BME280;25793;55.706;13.186;2022-08-25T08:07:17;101734.72;;;22.48;63.38
40089;BME280;25793;55.706;13.186;2022-08-25T08:09:44;101733.03;;;22.47;62.87
40089;BME280;25793;55.706;13.186;2022-08-25T08:12:11;101726.34;;;22.43;62.40
40089;BME280;25793;55.706;13.186;2022-08-25T08:14:40;101709.19;;;22.47;61.98
40089;BME280;25793;55.706;13.186;2022-08-25T08:17:11;101724.56;;;22.44;61.88
40089;BME280;25793;55.706;13.186;2022-08-25T08:19:38;101724.81;;;22.51;61.53
40089;BME280;25793;55.706;13.186;2022-08-25T08:22:11;101723.38;;;22.56;60.93
40089;BME280;25793;55.706;13.186;2022-08-25T08:24:42;101713.19;;;22.61;60.88
40089;BME280;25793;55.706;13.186;2022-08-25T08:27:21;101711.06;;;22.75;60.19
40089;BME280;25793;55.706;13.186;2022-08-25T08:29:48;101710.47;;;22.91;59.92
40089;BME280;25793;55.706;13.186;2022-08-25T08:32:14;101707.91;;;22.99;58.98
40089;BME280;25793;55.706;13.186;2022-08-25T08:34:44;101701.88;;;23.07;58.88
40089;BME280;25793;55.706;13.186;2022-08-25T08:37:17;101708.28;;;23.14;58.76
40089;BME280;25793;55.706;13.186;2022-08-25T08:39:48;101707.13;;;23.27;58.41
40089;BME280;25793;55.706;13.186;2022-08-25T08:45:29;101706.72;;;23.21;56.76
40089;BME280;25793;55.706;13.186;2022-08-25T08:48:29;101702.81;;;23.16;56.90
40089;BME280;25793;55.706;13.186;2022-08-25T08:53:55;101705.91;;;23.39;55.54
40089;BME280;25793;55.706;13.186;2022-08-25T08:56:39;101709.81;;;23.45;55.21
40089;BME280;25793;55.706;13.186;2022-08-25T08:59:20;101712.41;;;23.55;55.17
40089;BME280;25793;55.706;13.186;2022-08-25T09:02:00;101719.69;;;23.52;55.64
40089;BME280;25793;55.706;13.186;2022-08-25T09:07:03;101717.56;;;23.74;55.42
40089;BME280;25793;55.706;13.186;2022-08-25T09:09:36;101713.03;;;23.85;54.98
40089;BME280;25793;55.706;13.186;2022-08-25T09:12:14;101708.91;;;23.90;54.99
40089;BME280;25793;55.706;13.186;2022-08-25T09:23:33;101713.88;;;24.21;53.83
40089;BME280;25793;55.706;13.186;2022-08-25T09:29:14;101716.59;;;24.11;53.09
40089;BME280;25793;55.706;13.186;2022-08-25T09:31:43;101708.94;;;24.08;53.62
40089;BME280;25793;55.706;13.186;2022-08-25T09:34:14;101699.81;;;23.93;54.09
40089;BME280;25793;55.706;13.186;2022-08-25T09:36:42;101696.50;;;23.73;54.34
40089;BME280;25793;55.706;13.186;2022-08-25T09:39:08;101690.88;;;23.76;54.68
40089;BME280;25793;55.706;13.186;2022-08-25T09:41:45;101692.97;;;23.72;54.63
40089;BME280;25793;55.706;13.186;2022-08-25T09:47:01;101687.66;;;23.90;53.05
40089;BME280;25793;55.706;13.186;2022-08-25T09:49:32;101681.69;;;24.06;52.59
40089;BME280;25793;55.706;13.186;2022-08-25T09:52:22;101682.91;;;24.12;51.81
40089;BME280;25793;55.706;13.186;2022-08-25T09:54:52;101684.28;;;24.16;51.25
40089;BME280;25793;55.706;13.186;2022-08-25T09:57:31;101683.34;;;24.07;50.50
40089;BME280;25793;55.706;13.186;2022-08-25T10:03:04;101680.16;;;24.22;50.74
40089;BME280;25793;55.706;13.186;2022-08-25T10:05:38;101678.31;;;24.22;50.71
40089;BME280;25793;55.706;13.186;2022-08-25T10:08:12;101681.50;;;24.26;50.88
40089;BME280;25793;55.706;13.186;2022-08-25T10:10:53;101670.41;;;24.31;51.12
40089;BME280;25793;55.706;13.186;2022-08-25T10:13:21;101660.94;;;24.28;50.39
40089;BME280;25793;55.706;13.186;2022-08-25T10:16:39;101665.31;;;24.37;50.66
40089;BME280;25793;55.706;13.186;2022-08-25T10:19:26;101653.25;;;24.51;50.66
40089;BME280;25793;55.706;13.186;2022-08-25T10:24:38;101650.66;;;24.60;50.62
40089;BME280;25793;55.706;13.186;2022-08-25T10:40:53;101648.06;;;25.11;50.10
40089;BME280;25793;55.706;13.186;2022-08-25T10:43:37;101658.63;;;24.94;50.92
40089;BME280;25793;55.706;13.186;2022-08-25T10:46:24;101659.13;;;24.98;50.80
40089;BME280;25793;55.706;13.186;2022-08-25T10:49:06;101663.38;;;24.74;51.41
40089;BME280;25793;55.706;13.186;2022-08-25T10:51:54;101658.41;;;24.79;51.94
40089;BME280;25793;55.706;13.186;2022-08-25T10:54:48;101668.59;;;24.92;51.79
40089;BME280;25793;55.706;13.186;2022-08-25T11:00:27;101658.09;;;24.82;52.43
40089;BME280;25793;55.706;13.186;2022-08-25T11:05:54;101655.31;;;24.66;52.51
40089;BME280;25793;55.706;13.186;2022-08-25T11:08:37;101657.28;;;24.64;52.76
40089;BME280;25793;55.706;13.186;2022-08-25T11:19:36;101654.66;;;24.98;52.51
40089;BME280;25793;55.706;13.186;2022-08-25T11:27:40;101653.66;;;24.99;52.94
40089;BME280;25793;55.706;13.186;2022-08-25T11:30:13;101650.00;;;25.00;53.04
40089;BME280;25793;55.706;13.186;2022-08-25T11:32:44;101633.81;;;24.85;53.23
40089;BME280;25793;55.706;13.186;2022-08-25T11:35:16;101632.97;;;24.85;53.76
40089;BME280;25793;55.706;13.186;2022-08-25T11:49:31;101634.81;;;24.84;53.57
40089;BME280;25793;55.706;13.186;2022-08-25T11:55:18;101630.22;;;24.68;53.49
40089;BME280;25793;55.706;13.186;2022-08-25T11:57:50;101633.84;;;24.59;54.10
40089;BME280;25793;55.706;13.186;2022-08-25T12:00:40;101634.19;;;24.64;53.72
40089;BME280;25793;55.706;13.186;2022-08-25T12:06:34;101631.69;;;24.97;52.95
40089;BME280;25793;55.706;13.186;2022-08-25T12:30:02;101608.59;;;25.06;52.16
40089;BME280;25793;55.706;13.186;2022-08-25T12:38:41;101581.66;;;24.93;52.97
40089;BME280;25793;55.706;13.186;2022-08-25T12:41:16;101582.13;;;24.96;52.73
40089;BME280;25793;55.706;13.186;2022-08-25T12:43:52;101584.84;;;25.13;52.82
40089;BME280;25793;55.706;13.186;2022-08-25T12:49:04;101573.16;;;24.97;53.61
40089;BME280;25793;55.706;13.186;2022-08-25T12:51:53;101577.34;;;25.08;53.56
40089;BME280;25793;55.706;13.186;2022-08-25T12:59:57;101569.56;;;25.40;52.61
40089;BME280;25793;55.706;13.186;2022-08-25T13:16:07;101573.53;;;26.18;51.44
40089;BME280;25793;55.706;13.186;2022-08-25T13:18:41;101571.19;;;26.24;51.08
40089;BME280;25793;55.706;13.186;2022-08-25T13:21:17;101563.03;;;26.09;51.61
40089;BME280;25793;55.706;13.186;2022-08-25T13:23:52;101565.03;;;26.15;51.42
40089;BME280;25793;55.706;13.186;2022-08-25T13:26:38;101566.19;;;25.96;51.79
40089;BME280;25793;55.706;13.186;2022-08-25T13:29:23;101564.06;;;25.83;52.57
40089;BME280;25793;55.706;13.186;2022-08-25T13:34:23;101555.09;;;25.67;53.31
40089;BME280;25793;55.706;13.186;2022-08-25T13:37:15;101544.25;;;25.85;52.86
40089;BME280;25793;55.706;13.186;2022-08-25T13:40:12;101556.59;;;25.70;52.93
40089;BME280;25793;55.706;13.186;2022-08-25T13:42:49;101554.44;;;25.65;53.34
40089;BME280;25793;55.706;13.186;2022-08-25T13:45:29;101550.75;;;25.41;54.08
40089;BME280;25793;55.706;13.186;2022-08-25T13:47:57;101551.09;;;25.22;54.88
40089;BME280;25793;55.706;13.186;2022-08-25T13:53:09;101541.31;;;25.47;54.62
40089;BME280;25793;55.706;13.186;2022-08-25T13:55:48;101543.78;;;25.65;54.45
40089;BME280;25793;55.706;13.186;2022-08-25T13:58:21;101545.75;;;25.88;53.79
40089;BME280;25793;55.706;13.186;2022-08-25T14:01:53;101538.19;;;26.08;53.11
40089;BME280;25793;55.706;13.186;2022-08-25T14:12:31;101542.41;;;25.78;53.14
40089;BME280;25793;55.706;13.186;2022-08-25T14:17:36;101538.78;;;25.21;54.75
40089;BME280;25793;55.706;13.186;2022-08-25T14:22:44;101531.59;;;25.21;54.48
40089;BME280;25793;55.706;13.186;2022-08-25T14:25:11;101523.28;;;25.24;54.20
40089;BME280;25793;55.706;13.186;2022-08-25T14:27:43;101532.59;;;25.04;54.79
40089;BME280;25793;55.706;13.186;2022-08-25T14:30:32;101526.09;;;25.06;54.79
40089;BME280;25793;55.706;13.186;2022-08-25T14:33:01;101526.94;;;25.23;54.37
40089;BME280;25793;55.706;13.186;2022-08-25T14:35:28;101517.63;;;25.27;54.25
40089;BME280;25793;55.706;13.186;2022-08-25T14:37:57;101504.47;;;25.09;54.04
40089;BME280;25793;55.706;13.186;2022-08-25T14:40:24;101509.75;;;24.76;54.87
40089;BME280;25793;55.706;13.186;2022-08-25T14:42:51;101514.88;;;24.69;55.04
40089;BME280;25793;55.706;13.186;2022-08-25T14:45:20;101510.88;;;24.65;55.15
40089;BME280;25793;55.706;13.186;2022-08-25T14:47:48;101508.50;;;24.54;55.39
40089;BME280;25793;55.706;13.186;2022-08-25T14:50:16;101499.50;;;24.47;55.83
40089;BME280;25793;55.706;13.186;2022-08-25T14:52:46;101496.66;;;24.40;55.86
40089;BME280;25793;55.706;13.186;2022-08-25T14:55:17;101497.97;;;24.36;56.04
40089;BME280;25793;55.706;13.186;2022-08-25T14:57:57;101501.47;;;24.36;56.21
40089;BME280;25793;55.706;13.186;2022-08-25T15:00:24;101494.94;;;24.22;56.28
40089;BME280;25793;55.706;13.186;2022-08-25T15:02:59;101496.22;;;24.10;57.08
40089;BME280;25793;55.706;13.186;2022-08-25T15:05:26;101493.88;;;24.07;57.26
40089;BME280;25793;55.706;13.186;2022-08-25T15:07:56;101502.66;;;24.07;57.51
40089;BME280;25793;55.706;13.186;2022-08-25T15:10:41;101497.16;;;24.01;57.66
40089;BME280;25793;55.706;13.186;2022-08-25T15:13:09;101494.69;;;24.07;57.74
40089;BME280;25793;55.706;13.186;2022-08-25T15:15:38;101494.38;;;24.02;58.11
40089;BME280;25793;55.706;13.186;2022-08-25T15:18:19;101489.19;;;24.01;57.82
40089;BME280;25793;55.706;13.186;2022-08-25T15:20:47;101480.94;;;23.86;57.97
40089;BME280;25793;55.706;13.186;2022-08-25T15:23:19;101479.91;;;23.78;58.43
40089;BME280;25793;55.706;13.186;2022-08-25T15:25:47;101475.75;;;23.76;58.52
40089;BME280;25793;55.706;13.186;2022-08-25T15:28:19;101476.63;;;23.58;58.84
40089;BME280;25793;55.706;13.186;2022-08-25T15:30:48;101478.19;;;23.43;59.41
40089;BME280;25793;55.706;13.186;2022-08-25T15:33:16;101470.22;;;23.43;59.66
40089;BME280;25793;55.706;13.186;2022-08-25T15:35:43;101466.44;;;23.45;59.62